METAR Data
IDs: Format: Raw Decoded Include TAF

Data at: 1834 UTC 16 Oct 2021

KBTA 161815Z AUTO 26010G14KT 10SM CLR 16/M01 A3024 RMK AO2 T01551006